Terminal Aerodrome Forecast
Issued by NWS

Home | Current Version | Previous Version | Text Only | Print | Product List | Glossary On
Versions: 1 2 3 4 5 6 7 8 9 10 11 12 13 14 15
000
FTUS45 KABQ 251124
TAFTCC
TAF
KTCC 251124Z 2512/2612 20006KT P6SM FEW100
     FM251600 21011G19KT P6SM SCT080
     FM251900 20016G24KT P6SM VCSH BKN090
     FM260200 20014KT P6SM BKN100=

USA.gov is the U.S. government's official web portal to all federal, state and local government web resources and services.